sensor_id;sensor_type;location;lat;lon;timestamp;P1;durP1;ratioP1;P2;durP2;ratioP2
21729;SDS011;11027;51.030;13.812;2023-04-06T00:00:58;5.75;;;3.75;;
21729;SDS011;11027;51.030;13.812;2023-04-06T00:03:24;8.90;;;4.38;;
21729;SDS011;11027;51.030;13.812;2023-04-06T00:05:49;7.10;;;4.15;;
21729;SDS011;11027;51.030;13.812;2023-04-06T00:08:14;5.75;;;3.90;;
21729;SDS011;11027;51.030;13.812;2023-04-06T00:10:40;7.22;;;4.07;;
21729;SDS011;11027;51.030;13.812;2023-04-06T00:13:05;7.53;;;4.30;;
21729;SDS011;11027;51.030;13.812;2023-04-06T00:15:31;8.82;;;4.80;;
21729;SDS011;11027;51.030;13.812;2023-04-06T00:17:57;5.03;;;3.90;;
21729;SDS011;11027;51.030;13.812;2023-04-06T00:20:22;7.00;;;4.28;;
21729;SDS011;11027;51.030;13.812;2023-04-06T00:22:48;6.55;;;4.60;;
21729;SDS011;11027;51.030;13.812;2023-04-06T00:25:13;8.68;;;4.20;;
21729;SDS011;11027;51.030;13.812;2023-04-06T00:27:40;8.35;;;4.50;;
21729;SDS011;11027;51.030;13.812;2023-04-06T00:30:06;8.05;;;4.30;;
21729;SDS011;11027;51.030;13.812;2023-04-06T00:32:32;8.02;;;4.22;;
21729;SDS011;11027;51.030;13.812;2023-04-06T00:34:58;8.32;;;4.47;;
21729;SDS011;11027;51.030;13.812;2023-04-06T00:37:23;7.10;;;4.20;;
21729;SDS011;11027;51.030;13.812;2023-04-06T00:39:49;11.40;;;4.68;;
21729;SDS011;11027;51.030;13.812;2023-04-06T00:42:16;6.05;;;3.97;;
21729;SDS011;11027;51.030;13.812;2023-04-06T00:44:43;8.65;;;4.45;;
21729;SDS011;11027;51.030;13.812;2023-04-06T00:47:08;8.60;;;4.35;;
21729;SDS011;11027;51.030;13.812;2023-04-06T00:49:34;5.45;;;4.07;;
21729;SDS011;11027;51.030;13.812;2023-04-06T00:52:00;7.47;;;4.20;;
21729;SDS011;11027;51.030;13.812;2023-04-06T00:54:26;6.95;;;3.83;;
21729;SDS011;11027;51.030;13.812;2023-04-06T00:56:52;8.25;;;4.03;;
21729;SDS011;11027;51.030;13.812;2023-04-06T00:59:17;10.68;;;3.95;;
21729;SDS011;11027;51.030;13.812;2023-04-06T01:01:42;6.45;;;3.88;;
21729;SDS011;11027;51.030;13.812;2023-04-06T01:04:08;7.72;;;4.07;;
21729;SDS011;11027;51.030;13.812;2023-04-06T01:06:33;6.65;;;3.72;;
21729;SDS011;11027;51.030;13.812;2023-04-06T01:08:58;6.22;;;3.97;;
21729;SDS011;11027;51.030;13.812;2023-04-06T01:11:24;6.10;;;3.58;;
21729;SDS011;11027;51.030;13.812;2023-04-06T01:13:49;5.95;;;3.72;;
21729;SDS011;11027;51.030;13.812;2023-04-06T01:16:14;5.93;;;3.85;;
21729;SDS011;11027;51.030;13.812;2023-04-06T01:18:40;7.70;;;3.80;;
21729;SDS011;11027;51.030;13.812;2023-04-06T01:21:07;6.32;;;4.03;;
21729;SDS011;11027;51.030;13.812;2023-04-06T01:23:33;7.88;;;3.97;;
21729;SDS011;11027;51.030;13.812;2023-04-06T01:25:59;7.03;;;3.97;;
21729;SDS011;11027;51.030;13.812;2023-04-06T01:28:24;8.65;;;4.13;;
21729;SDS011;11027;51.030;13.812;2023-04-06T01:30:50;6.47;;;4.20;;
21729;SDS011;11027;51.030;13.812;2023-04-06T01:33:15;5.57;;;3.80;;
21729;SDS011;11027;51.030;13.812;2023-04-06T01:35:41;8.68;;;4.30;;
21729;SDS011;11027;51.030;13.812;2023-04-06T01:38:06;6.97;;;3.80;;
21729;SDS011;11027;51.030;13.812;2023-04-06T01:40:31;8.85;;;4.45;;
21729;SDS011;11027;51.030;13.812;2023-04-06T01:42:56;8.15;;;4.10;;
21729;SDS011;11027;51.030;13.812;2023-04-06T01:45:22;6.10;;;4.00;;
21729;SDS011;11027;51.030;13.812;2023-04-06T01:47:47;7.63;;;4.30;;
21729;SDS011;11027;51.030;13.812;2023-04-06T01:50:12;8.48;;;4.22;;
21729;SDS011;11027;51.030;13.812;2023-04-06T01:52:37;7.45;;;4.20;;
21729;SDS011;11027;51.030;13.812;2023-04-06T01:55:03;9.70;;;4.60;;
21729;SDS011;11027;51.030;13.812;2023-04-06T01:57:28;8.40;;;4.38;;
21729;SDS011;11027;51.030;13.812;2023-04-06T01:59:53;8.70;;;4.30;;
21729;SDS011;11027;51.030;13.812;2023-04-06T02:02:19;7.80;;;4.35;;
21729;SDS011;11027;51.030;13.812;2023-04-06T02:04:44;7.60;;;4.10;;
21729;SDS011;11027;51.030;13.812;2023-04-06T02:07:09;10.32;;;4.70;;
21729;SDS011;11027;51.030;13.812;2023-04-06T02:09:35;6.70;;;4.40;;
21729;SDS011;11027;51.030;13.812;2023-04-06T02:12:00;7.30;;;4.63;;
21729;SDS011;11027;51.030;13.812;2023-04-06T02:14:26;9.15;;;4.25;;
21729;SDS011;11027;51.030;13.812;2023-04-06T02:16:52;9.70;;;4.30;;
21729;SDS011;11027;51.030;13.812;2023-04-06T02:19:17;9.02;;;4.70;;
21729;SDS011;11027;51.030;13.812;2023-04-06T02:21:42;8.00;;;4.40;;
21729;SDS011;11027;51.030;13.812;2023-04-06T02:24:07;7.78;;;4.47;;
21729;SDS011;11027;51.030;13.812;2023-04-06T02:26:33;9.48;;;4.43;;
21729;SDS011;11027;51.030;13.812;2023-04-06T02:28:58;6.90;;;4.43;;
21729;SDS011;11027;51.030;13.812;2023-04-06T02:31:23;9.07;;;4.72;;
21729;SDS011;11027;51.030;13.812;2023-04-06T02:33:48;7.85;;;4.60;;
21729;SDS011;11027;51.030;13.812;2023-04-06T02:36:14;6.65;;;4.40;;
21729;SDS011;11027;51.030;13.812;2023-04-06T02:38:39;7.88;;;4.53;;
21729;SDS011;11027;51.030;13.812;2023-04-06T02:41:04;10.93;;;4.90;;
21729;SDS011;11027;51.030;13.812;2023-04-06T02:43:30;9.80;;;4.90;;
21729;SDS011;11027;51.030;13.812;2023-04-06T02:45:56;11.90;;;4.97;;
21729;SDS011;11027;51.030;13.812;2023-04-06T02:48:21;8.45;;;5.22;;
21729;SDS011;11027;51.030;13.812;2023-04-06T02:50:46;11.23;;;5.47;;
21729;SDS011;11027;51.030;13.812;2023-04-06T02:53:11;7.25;;;5.10;;
21729;SDS011;11027;51.030;13.812;2023-04-06T02:55:37;6.10;;;4.47;;
21729;SDS011;11027;51.030;13.812;2023-04-06T02:58:02;6.82;;;4.65;;
21729;SDS011;11027;51.030;13.812;2023-04-06T03:00:27;9.13;;;5.20;;
21729;SDS011;11027;51.030;13.812;2023-04-06T03:02:52;8.93;;;4.82;;
21729;SDS011;11027;51.030;13.812;2023-04-06T03:05:18;7.07;;;4.35;;
21729;SDS011;11027;51.030;13.812;2023-04-06T03:07:43;7.72;;;4.85;;
21729;SDS011;11027;51.030;13.812;2023-04-06T03:10:08;6.97;;;4.70;;
21729;SDS011;11027;51.030;13.812;2023-04-06T03:12:34;6.55;;;4.82;;
21729;SDS011;11027;51.030;13.812;2023-04-06T03:14:59;8.93;;;4.80;;
21729;SDS011;11027;51.030;13.812;2023-04-06T03:17:25;7.90;;;4.63;;
21729;SDS011;11027;51.030;13.812;2023-04-06T03:19:50;9.77;;;5.40;;
21729;SDS011;11027;51.030;13.812;2023-04-06T03:22:16;8.15;;;4.95;;
21729;SDS011;11027;51.030;13.812;2023-04-06T03:24:41;8.38;;;4.43;;
21729;SDS011;11027;51.030;13.812;2023-04-06T03:27:06;10.70;;;5.07;;
21729;SDS011;11027;51.030;13.812;2023-04-06T03:29:31;7.00;;;4.38;;
21729;SDS011;11027;51.030;13.812;2023-04-06T03:31:57;7.95;;;4.93;;
21729;SDS011;11027;51.030;13.812;2023-04-06T03:34:22;8.40;;;5.00;;
21729;SDS011;11027;51.030;13.812;2023-04-06T03:36:47;9.73;;;5.40;;
21729;SDS011;11027;51.030;13.812;2023-04-06T03:39:12;8.77;;;5.38;;
21729;SDS011;11027;51.030;13.812;2023-04-06T03:41:37;10.70;;;5.25;;
21729;SDS011;11027;51.030;13.812;2023-04-06T03:44:03;8.38;;;4.55;;
21729;SDS011;11027;51.030;13.812;2023-04-06T03:46:28;7.97;;;4.97;;
21729;SDS011;11027;51.030;13.812;2023-04-06T03:48:53;7.72;;;5.28;;
21729;SDS011;11027;51.030;13.812;2023-04-06T03:51:19;8.00;;;4.40;;
21729;SDS011;11027;51.030;13.812;2023-04-06T03:53:44;10.10;;;6.07;;
21729;SDS011;11027;51.030;13.812;2023-04-06T03:56:09;8.20;;;4.75;;
21729;SDS011;11027;51.030;13.812;2023-04-06T03:58:35;7.60;;;5.20;;
21729;SDS011;11027;51.030;13.812;2023-04-06T04:01:00;8.13;;;5.03;;
21729;SDS011;11027;51.030;13.812;2023-04-06T04:03:25;12.73;;;5.28;;
21729;SDS011;11027;51.030;13.812;2023-04-06T04:05:52;12.48;;;5.70;;
21729;SDS011;11027;51.030;13.812;2023-04-06T04:08:18;9.18;;;5.03;;
21729;SDS011;11027;51.030;13.812;2023-04-06T04:10:43;8.90;;;5.20;;
21729;SDS011;11027;51.030;13.812;2023-04-06T04:13:08;9.18;;;4.82;;
21729;SDS011;11027;51.030;13.812;2023-04-06T04:15:33;8.30;;;4.97;;
21729;SDS011;11027;51.030;13.812;2023-04-06T04:17:59;9.18;;;5.28;;
21729;SDS011;11027;51.030;13.812;2023-04-06T04:20:24;8.52;;;4.78;;
21729;SDS011;11027;51.030;13.812;2023-04-06T04:22:49;11.30;;;5.65;;
21729;SDS011;11027;51.030;13.812;2023-04-06T04:25:14;9.70;;;4.95;;
21729;SDS011;11027;51.030;13.812;2023-04-06T04:27:40;8.18;;;5.85;;
21729;SDS011;11027;51.030;13.812;2023-04-06T04:30:05;9.63;;;5.68;;
21729;SDS011;11027;51.030;13.812;2023-04-06T04:32:31;10.32;;;5.63;;
21729;SDS011;11027;51.030;13.812;2023-04-06T04:34:56;9.38;;;5.80;;
21729;SDS011;11027;51.030;13.812;2023-04-06T04:37:22;8.50;;;5.70;;
21729;SDS011;11027;51.030;13.812;2023-04-06T04:39:47;7.90;;;5.38;;
21729;SDS011;11027;51.030;13.812;2023-04-06T04:42:13;10.68;;;5.80;;
21729;SDS011;11027;51.030;13.812;2023-04-06T04:44:39;9.48;;;5.60;;
21729;SDS011;11027;51.030;13.812;2023-04-06T04:47:04;8.85;;;5.68;;
21729;SDS011;11027;51.030;13.812;2023-04-06T04:49:30;8.00;;;5.18;;
21729;SDS011;11027;51.030;13.812;2023-04-06T04:51:55;9.82;;;5.93;;
21729;SDS011;11027;51.030;13.812;2023-04-06T04:54:20;8.48;;;5.20;;
21729;SDS011;11027;51.030;13.812;2023-04-06T04:56:45;12.13;;;5.93;;
21729;SDS011;11027;51.030;13.812;2023-04-06T04:59:11;11.88;;;5.45;;
21729;SDS011;11027;51.030;13.812;2023-04-06T05:01:36;11.23;;;5.43;;
21729;SDS011;11027;51.030;13.812;2023-04-06T05:04:01;8.43;;;5.70;;
21729;SDS011;11027;51.030;13.812;2023-04-06T05:06:26;15.15;;;5.90;;
21729;SDS011;11027;51.030;13.812;2023-04-06T05:08:52;7.93;;;5.55;;
21729;SDS011;11027;51.030;13.812;2023-04-06T05:11:17;13.48;;;6.05;;
21729;SDS011;11027;51.030;13.812;2023-04-06T05:13:42;10.00;;;5.75;;
21729;SDS011;11027;51.030;13.812;2023-04-06T05:16:08;9.38;;;5.60;;
21729;SDS011;11027;51.030;13.812;2023-04-06T05:18:33;11.70;;;5.88;;
21729;SDS011;11027;51.030;13.812;2023-04-06T05:20:58;12.57;;;6.32;;
21729;SDS011;11027;51.030;13.812;2023-04-06T05:23:24;13.32;;;6.15;;
21729;SDS011;11027;51.030;13.812;2023-04-06T05:25:49;14.70;;;6.50;;
21729;SDS011;11027;51.030;13.812;2023-04-06T05:28:15;9.38;;;6.10;;
21729;SDS011;11027;51.030;13.812;2023-04-06T05:30:41;12.95;;;6.53;;
21729;SDS011;11027;51.030;13.812;2023-04-06T05:33:07;16.38;;;6.53;;
21729;SDS011;11027;51.030;13.812;2023-04-06T05:35:33;10.55;;;6.30;;
21729;SDS011;11027;51.030;13.812;2023-04-06T05:37:58;12.00;;;5.93;;
21729;SDS011;11027;51.030;13.812;2023-04-06T05:40:23;8.88;;;5.53;;
21729;SDS011;11027;51.030;13.812;2023-04-06T05:42:48;10.60;;;6.25;;
21729;SDS011;11027;51.030;13.812;2023-04-06T05:45:14;13.23;;;6.22;;
21729;SDS011;11027;51.030;13.812;2023-04-06T05:47:41;14.23;;;6.13;;
21729;SDS011;11027;51.030;13.812;2023-04-06T05:50:08;11.93;;;5.95;;
21729;SDS011;11027;51.030;13.812;2023-04-06T05:52:34;15.85;;;6.68;;
21729;SDS011;11027;51.030;13.812;2023-04-06T05:54:59;13.77;;;6.32;;
21729;SDS011;11027;51.030;13.812;2023-04-06T05:57:24;14.10;;;6.57;;
21729;SDS011;11027;51.030;13.812;2023-04-06T05:59:50;9.50;;;6.03;;
21729;SDS011;11027;51.030;13.812;2023-04-06T06:02:15;10.05;;;6.72;;
21729;SDS011;11027;51.030;13.812;2023-04-06T06:04:40;11.50;;;6.20;;
21729;SDS011;11027;51.030;13.812;2023-04-06T06:07:05;13.85;;;6.10;;
21729;SDS011;11027;51.030;13.812;2023-04-06T06:09:31;15.13;;;7.03;;
21729;SDS011;11027;51.030;13.812;2023-04-06T06:11:56;8.55;;;5.63;;
21729;SDS011;11027;51.030;13.812;2023-04-06T06:14:21;13.25;;;6.60;;
21729;SDS011;11027;51.030;13.812;2023-04-06T06:16:47;10.25;;;5.75;;
21729;SDS011;11027;51.030;13.812;2023-04-06T06:19:12;10.88;;;6.22;;
21729;SDS011;11027;51.030;13.812;2023-04-06T06:21:37;12.05;;;6.43;;
21729;SDS011;11027;51.030;13.812;2023-04-06T06:24:03;8.88;;;5.97;;
21729;SDS011;11027;51.030;13.812;2023-04-06T06:26:28;11.70;;;6.10;;
21729;SDS011;11027;51.030;13.812;2023-04-06T06:28:53;10.48;;;5.93;;
21729;SDS011;11027;51.030;13.812;2023-04-06T06:31:19;9.68;;;5.80;;
21729;SDS011;11027;51.030;13.812;2023-04-06T06:33:48;10.48;;;6.13;;
21729;SDS011;11027;51.030;13.812;2023-04-06T06:36:16;8.02;;;5.68;;
21729;SDS011;11027;51.030;13.812;2023-04-06T06:38:44;12.10;;;6.15;;
21729;SDS011;11027;51.030;13.812;2023-04-06T06:41:10;13.88;;;6.60;;
21729;SDS011;11027;51.030;13.812;2023-04-06T06:43:35;13.60;;;5.95;;
21729;SDS011;11027;51.030;13.812;2023-04-06T06:46:00;11.70;;;6.40;;
21729;SDS011;11027;51.030;13.812;2023-04-06T06:48:26;9.48;;;6.18;;
21729;SDS011;11027;51.030;13.812;2023-04-06T06:50:51;11.65;;;6.40;;
21729;SDS011;11027;51.030;13.812;2023-04-06T06:53:16;9.70;;;5.85;;
21729;SDS011;11027;51.030;13.812;2023-04-06T06:55:42;9.98;;;5.88;;
21729;SDS011;11027;51.030;13.812;2023-04-06T06:58:09;10.30;;;6.25;;
21729;SDS011;11027;51.030;13.812;2023-04-06T07:00:34;12.20;;;5.97;;
21729;SDS011;11027;51.030;13.812;2023-04-06T07:03:00;12.02;;;5.82;;
21729;SDS011;11027;51.030;13.812;2023-04-06T07:05:25;12.10;;;6.45;;
21729;SDS011;11027;51.030;13.812;2023-04-06T07:07:51;11.25;;;6.15;;
21729;SDS011;11027;51.030;13.812;2023-04-06T07:10:16;12.82;;;6.32;;
21729;SDS011;11027;51.030;13.812;2023-04-06T07:12:42;11.88;;;6.95;;
21729;SDS011;11027;51.030;13.812;2023-04-06T07:15:07;10.75;;;6.45;;
21729;SDS011;11027;51.030;13.812;2023-04-06T07:17:33;12.63;;;6.15;;
21729;SDS011;11027;51.030;13.812;2023-04-06T07:19:58;11.30;;;6.55;;
21729;SDS011;11027;51.030;13.812;2023-04-06T07:22:23;16.80;;;6.43;;
21729;SDS011;11027;51.030;13.812;2023-04-06T07:24:48;14.75;;;6.32;;
21729;SDS011;11027;51.030;13.812;2023-04-06T07:27:14;13.45;;;6.60;;
21729;SDS011;11027;51.030;13.812;2023-04-06T07:29:41;9.70;;;5.85;;
21729;SDS011;11027;51.030;13.812;2023-04-06T07:32:06;10.95;;;6.18;;
21729;SDS011;11027;51.030;13.812;2023-04-06T07:34:31;9.70;;;5.78;;
21729;SDS011;11027;51.030;13.812;2023-04-06T07:36:57;9.20;;;5.57;;
21729;SDS011;11027;51.030;13.812;2023-04-06T07:39:24;8.25;;;5.50;;
21729;SDS011;11027;51.030;13.812;2023-04-06T07:41:51;11.00;;;5.35;;
21729;SDS011;11027;51.030;13.812;2023-04-06T07:44:16;10.30;;;5.45;;
21729;SDS011;11027;51.030;13.812;2023-04-06T07:46:41;13.32;;;5.00;;
21729;SDS011;11027;51.030;13.812;2023-04-06T07:49:07;9.27;;;5.47;;
21729;SDS011;11027;51.030;13.812;2023-04-06T07:51:32;8.80;;;5.10;;
21729;SDS011;11027;51.030;13.812;2023-04-06T07:53:57;10.65;;;5.28;;
21729;SDS011;11027;51.030;13.812;2023-04-06T07:56:23;10.70;;;5.50;;
21729;SDS011;11027;51.030;13.812;2023-04-06T07:58:48;11.65;;;5.13;;
21729;SDS011;11027;51.030;13.812;2023-04-06T08:01:14;8.98;;;5.20;;
21729;SDS011;11027;51.030;13.812;2023-04-06T08:03:39;8.68;;;5.22;;
21729;SDS011;11027;51.030;13.812;2023-04-06T08:06:04;10.40;;;5.32;;
21729;SDS011;11027;51.030;13.812;2023-04-06T08:08:30;6.80;;;4.78;;
21729;SDS011;11027;51.030;13.812;2023-04-06T08:10:55;9.27;;;4.82;;
21729;SDS011;11027;51.030;13.812;2023-04-06T08:13:20;9.63;;;4.75;;
21729;SDS011;11027;51.030;13.812;2023-04-06T08:15:46;9.68;;;5.35;;
21729;SDS011;11027;51.030;13.812;2023-04-06T08:18:11;7.68;;;5.10;;
21729;SDS011;11027;51.030;13.812;2023-04-06T08:20:36;10.00;;;5.05;;
21729;SDS011;11027;51.030;13.812;2023-04-06T08:23:02;12.82;;;5.40;;
21729;SDS011;11027;51.030;13.812;2023-04-06T08:25:27;9.20;;;5.10;;
21729;SDS011;11027;51.030;13.812;2023-04-06T08:27:52;8.48;;;5.25;;
21729;SDS011;11027;51.030;13.812;2023-04-06T08:30:18;9.95;;;5.45;;
21729;SDS011;11027;51.030;13.812;2023-04-06T08:32:44;7.35;;;5.20;;
21729;SDS011;11027;51.030;13.812;2023-04-06T08:35:10;9.77;;;4.95;;
21729;SDS011;11027;51.030;13.812;2023-04-06T08:37:35;7.70;;;4.97;;
21729;SDS011;11027;51.030;13.812;2023-04-06T08:40:00;10.82;;;4.78;;
21729;SDS011;11027;51.030;13.812;2023-04-06T08:42:26;7.45;;;4.97;;
21729;SDS011;11027;51.030;13.812;2023-04-06T08:44:56;6.65;;;4.38;;
21729;SDS011;11027;51.030;13.812;2023-04-06T08:47:22;8.75;;;4.20;;
21729;SDS011;11027;51.030;13.812;2023-04-06T08:49:47;6.57;;;4.18;;
21729;SDS011;11027;51.030;13.812;2023-04-06T08:52:14;7.80;;;3.92;;
21729;SDS011;11027;51.030;13.812;2023-04-06T08:54:42;6.43;;;4.45;;
21729;SDS011;11027;51.030;13.812;2023-04-06T08:57:07;7.55;;;4.47;;
21729;SDS011;11027;51.030;13.812;2023-04-06T08:59:33;7.45;;;4.03;;
21729;SDS011;11027;51.030;13.812;2023-04-06T09:02:00;6.13;;;3.80;;
21729;SDS011;11027;51.030;13.812;2023-04-06T09:04:28;5.28;;;3.83;;
21729;SDS011;11027;51.030;13.812;2023-04-06T09:06:53;8.55;;;4.22;;
21729;SDS011;11027;51.030;13.812;2023-04-06T09:09:19;9.55;;;5.72;;
21729;SDS011;11027;51.030;13.812;2023-04-06T09:11:48;8.23;;;4.10;;
21729;SDS011;11027;51.030;13.812;2023-04-06T09:14:14;5.13;;;3.28;;
21729;SDS011;11027;51.030;13.812;2023-04-06T09:16:41;7.13;;;3.75;;
21729;SDS011;11027;51.030;13.812;2023-04-06T09:19:07;5.70;;;3.15;;
21729;SDS011;11027;51.030;13.812;2023-04-06T09:21:33;4.53;;;3.15;;
21729;SDS011;11027;51.030;13.812;2023-04-06T09:23:59;6.80;;;4.10;;
21729;SDS011;11027;51.030;13.812;2023-04-06T09:26:25;7.65;;;3.55;;
21729;SDS011;11027;51.030;13.812;2023-04-06T09:28:55;5.10;;;3.40;;
21729;SDS011;11027;51.030;13.812;2023-04-06T09:31:23;6.78;;;3.33;;
21729;SDS011;11027;51.030;13.812;2023-04-06T09:34:08;3.90;;;2.90;;
21729;SDS011;11027;51.030;13.812;2023-04-06T09:36:34;4.47;;;3.05;;
21729;SDS011;11027;51.030;13.812;2023-04-06T09:39:03;3.45;;;2.90;;
21729;SDS011;11027;51.030;13.812;2023-04-06T09:41:30;3.95;;;3.05;;
21729;SDS011;11027;51.030;13.812;2023-04-06T09:44:04;4.25;;;2.90;;
21729;SDS011;11027;51.030;13.812;2023-04-06T09:49:09;6.55;;;3.20;;
21729;SDS011;11027;51.030;13.812;2023-04-06T09:51:36;3.90;;;3.05;;
21729;SDS011;11027;51.030;13.812;2023-04-06T09:54:05;2.92;;;2.50;;
21729;SDS011;11027;51.030;13.812;2023-04-06T09:56:34;4.60;;;3.10;;
21729;SDS011;11027;51.030;13.812;2023-04-06T09:59:09;4.95;;;2.80;;
21729;SDS011;11027;51.030;13.812;2023-04-06T10:01:39;5.18;;;3.42;;
21729;SDS011;11027;51.030;13.812;2023-04-06T10:04:20;7.15;;;3.20;;
21729;SDS011;11027;51.030;13.812;2023-04-06T10:07:01;4.35;;;3.03;;
21729;SDS011;11027;51.030;13.812;2023-04-06T10:09:28;4.47;;;3.10;;
21729;SDS011;11027;51.030;13.812;2023-04-06T10:12:00;3.90;;;2.80;;
21729;SDS011;11027;51.030;13.812;2023-04-06T10:14:27;7.20;;;3.40;;
21729;SDS011;11027;51.030;13.812;2023-04-06T10:16:52;4.90;;;2.92;;
21729;SDS011;11027;51.030;13.812;2023-04-06T10:19:21;3.33;;;2.70;;
21729;SDS011;11027;51.030;13.812;2023-04-06T10:21:50;3.97;;;2.90;;
21729;SDS011;11027;51.030;13.812;2023-04-06T10:24:19;3.55;;;2.60;;
21729;SDS011;11027;51.030;13.812;2023-04-06T10:26:56;4.75;;;2.70;;
21729;SDS011;11027;51.030;13.812;2023-04-06T10:29:22;5.25;;;2.97;;
21729;SDS011;11027;51.030;13.812;2023-04-06T10:31:48;4.57;;;2.95;;
21729;SDS011;11027;51.030;13.812;2023-04-06T10:34:13;4.72;;;2.63;;
21729;SDS011;11027;51.030;13.812;2023-04-06T10:36:39;4.97;;;3.10;;
21729;SDS011;11027;51.030;13.812;2023-04-06T10:39:05;3.28;;;2.65;;
21729;SDS011;11027;51.030;13.812;2023-04-06T10:41:32;6.88;;;4.18;;
21729;SDS011;11027;51.030;13.812;2023-04-06T10:43:59;5.00;;;3.03;;
21729;SDS011;11027;51.030;13.812;2023-04-06T10:46:26;6.75;;;3.90;;
21729;SDS011;11027;51.030;13.812;2023-04-06T10:48:53;4.07;;;2.60;;
21729;SDS011;11027;51.030;13.812;2023-04-06T10:51:18;3.70;;;3.00;;
21729;SDS011;11027;51.030;13.812;2023-04-06T10:53:45;4.32;;;2.83;;
21729;SDS011;11027;51.030;13.812;2023-04-06T10:56:14;4.18;;;2.92;;
21729;SDS011;11027;51.030;13.812;2023-04-06T10:58:44;2.55;;;2.28;;
21729;SDS011;11027;51.030;13.812;2023-04-06T11:01:11;5.72;;;2.50;;
21729;SDS011;11027;51.030;13.812;2023-04-06T11:03:43;3.20;;;2.45;;
21729;SDS011;11027;51.030;13.812;2023-04-06T11:06:09;3.10;;;2.20;;
21729;SDS011;11027;51.030;13.812;2023-04-06T11:08:35;2.65;;;2.33;;
21729;SDS011;11027;51.030;13.812;2023-04-06T11:11:05;4.30;;;2.35;;
21729;SDS011;11027;51.030;13.812;2023-04-06T11:18:31;2.85;;;2.20;;
21729;SDS011;11027;51.030;13.812;2023-04-06T11:20:56;3.65;;;2.53;;
21729;SDS011;11027;51.030;13.812;2023-04-06T11:23:22;4.40;;;2.42;;
21729;SDS011;11027;51.030;13.812;2023-04-06T11:25:50;5.00;;;2.63;;
21729;SDS011;11027;51.030;13.812;2023-04-06T11:28:16;4.85;;;2.33;;
21729;SDS011;11027;51.030;13.812;2023-04-06T11:30:41;3.03;;;2.45;;
21729;SDS011;11027;51.030;13.812;2023-04-06T11:33:07;2.83;;;2.15;;
21729;SDS011;11027;51.030;13.812;2023-04-06T11:35:33;3.72;;;2.25;;
21729;SDS011;11027;51.030;13.812;2023-04-06T11:37:59;3.58;;;2.47;;
21729;SDS011;11027;51.030;13.812;2023-04-06T11:40:28;3.25;;;2.28;;
21729;SDS011;11027;51.030;13.812;2023-04-06T11:42:55;3.17;;;2.20;;
21729;SDS011;11027;51.030;13.812;2023-04-06T11:45:21;4.10;;;2.90;;
21729;SDS011;11027;51.030;13.812;2023-04-06T11:47:54;5.55;;;2.20;;
21729;SDS011;11027;51.030;13.812;2023-04-06T11:50:24;4.05;;;2.28;;
21729;SDS011;11027;51.030;13.812;2023-04-06T11:52:57;4.05;;;2.40;;
21729;SDS011;11027;51.030;13.812;2023-04-06T11:55:25;5.22;;;2.45;;
21729;SDS011;11027;51.030;13.812;2023-04-06T11:57:50;3.97;;;2.50;;
21729;SDS011;11027;51.030;13.812;2023-04-06T12:00:16;3.65;;;2.63;;
21729;SDS011;11027;51.030;13.812;2023-04-06T12:02:45;2.97;;;2.40;;
21729;SDS011;11027;51.030;13.812;2023-04-06T12:05:11;3.58;;;2.40;;
21729;SDS011;11027;51.030;13.812;2023-04-06T12:07:36;5.63;;;2.88;;
21729;SDS011;11027;51.030;13.812;2023-04-06T12:10:02;4.88;;;2.70;;
21729;SDS011;11027;51.030;13.812;2023-04-06T12:12:27;5.40;;;2.60;;
21729;SDS011;11027;51.030;13.812;2023-04-06T12:14:53;4.20;;;2.80;;
21729;SDS011;11027;51.030;13.812;2023-04-06T12:17:20;6.57;;;2.83;;
21729;SDS011;11027;51.030;13.812;2023-04-06T12:19:45;4.45;;;2.65;;
21729;SDS011;11027;51.030;13.812;2023-04-06T12:22:10;4.57;;;2.30;;
21729;SDS011;11027;51.030;13.812;2023-04-06T12:24:36;3.40;;;2.45;;
21729;SDS011;11027;51.030;13.812;2023-04-06T12:27:01;7.05;;;2.88;;
21729;SDS011;11027;51.030;13.812;2023-04-06T12:29:26;3.55;;;2.35;;
21729;SDS011;11027;51.030;13.812;2023-04-06T12:31:51;3.55;;;2.83;;
21729;SDS011;11027;51.030;13.812;2023-04-06T12:34:18;2.75;;;2.33;;
21729;SDS011;11027;51.030;13.812;2023-04-06T12:36:43;4.10;;;2.40;;
21729;SDS011;11027;51.030;13.812;2023-04-06T12:39:08;3.63;;;2.20;;
21729;SDS011;11027;51.030;13.812;2023-04-06T12:41:33;2.92;;;1.92;;
21729;SDS011;11027;51.030;13.812;2023-04-06T12:43:59;3.97;;;2.45;;
21729;SDS011;11027;51.030;13.812;2023-04-06T12:46:25;6.68;;;2.17;;
21729;SDS011;11027;51.030;13.812;2023-04-06T12:48:51;5.57;;;2.00;;
21729;SDS011;11027;51.030;13.812;2023-04-06T12:51:18;4.10;;;2.40;;
21729;SDS011;11027;51.030;13.812;2023-04-06T12:53:44;4.75;;;2.05;;
21729;SDS011;11027;51.030;13.812;2023-04-06T12:56:11;3.08;;;1.95;;
21729;SDS011;11027;51.030;13.812;2023-04-06T13:01:07;6.13;;;2.13;;
21729;SDS011;11027;51.030;13.812;2023-04-06T13:03:32;3.90;;;2.10;;
21729;SDS011;11027;51.030;13.812;2023-04-06T13:05:58;4.85;;;2.40;;
21729;SDS011;11027;51.030;13.812;2023-04-06T13:08:25;2.40;;;2.17;;
21729;SDS011;11027;51.030;13.812;2023-04-06T13:10:51;4.57;;;2.30;;
21729;SDS011;11027;51.030;13.812;2023-04-06T13:13:17;6.30;;;2.10;;
21729;SDS011;11027;51.030;13.812;2023-04-06T13:15:48;5.07;;;2.17;;
21729;SDS011;11027;51.030;13.812;2023-04-06T13:18:13;4.68;;;2.42;;
21729;SDS011;11027;51.030;13.812;2023-04-06T13:20:38;3.15;;;2.17;;
21729;SDS011;11027;51.030;13.812;2023-04-06T13:23:04;3.25;;;2.38;;
21729;SDS011;11027;51.030;13.812;2023-04-06T13:25:29;2.38;;;2.10;;
21729;SDS011;11027;51.030;13.812;2023-04-06T13:27:55;4.00;;;2.40;;
21729;SDS011;11027;51.030;13.812;2023-04-06T13:30:20;4.72;;;2.30;;
21729;SDS011;11027;51.030;13.812;2023-04-06T13:32:46;3.67;;;1.95;;
21729;SDS011;11027;51.030;13.812;2023-04-06T13:35:12;3.20;;;2.20;;
21729;SDS011;11027;51.030;13.812;2023-04-06T13:37:37;3.10;;;2.30;;
21729;SDS011;11027;51.030;13.812;2023-04-06T13:40:02;2.92;;;2.17;;
21729;SDS011;11027;51.030;13.812;2023-04-06T13:42:29;2.83;;;2.15;;
21729;SDS011;11027;51.030;13.812;2023-04-06T13:44:55;4.47;;;2.35;;
21729;SDS011;11027;51.030;13.812;2023-04-06T13:47:20;3.00;;;2.40;;
21729;SDS011;11027;51.030;13.812;2023-04-06T13:49:46;4.63;;;2.08;;
21729;SDS011;11027;51.030;13.812;2023-04-06T13:52:12;3.42;;;1.95;;
21729;SDS011;11027;51.030;13.812;2023-04-06T13:54:38;3.83;;;2.30;;
21729;SDS011;11027;51.030;13.812;2023-04-06T13:57:03;2.50;;;2.00;;
21729;SDS011;11027;51.030;13.812;2023-04-06T13:59:34;3.67;;;2.03;;
21729;SDS011;11027;51.030;13.812;2023-04-06T14:02:00;5.47;;;1.88;;
21729;SDS011;11027;51.030;13.812;2023-04-06T14:04:30;2.92;;;2.20;;
21729;SDS011;11027;51.030;13.812;2023-04-06T14:06:58;2.67;;;2.00;;
21729;SDS011;11027;51.030;13.812;2023-04-06T14:09:24;3.53;;;2.45;;
21729;SDS011;11027;51.030;13.812;2023-04-06T14:11:50;2.72;;;2.40;;
21729;SDS011;11027;51.030;13.812;2023-04-06T14:14:16;4.90;;;2.50;;
21729;SDS011;11027;51.030;13.812;2023-04-06T14:16:42;2.08;;;1.80;;
21729;SDS011;11027;51.030;13.812;2023-04-06T14:19:11;3.33;;;1.90;;
21729;SDS011;11027;51.030;13.812;2023-04-06T14:21:40;3.75;;;2.30;;
21729;SDS011;11027;51.030;13.812;2023-04-06T14:24:06;4.35;;;2.30;;
21729;SDS011;11027;51.030;13.812;2023-04-06T14:26:33;4.70;;;2.30;;
21729;SDS011;11027;51.030;13.812;2023-04-06T14:28:58;5.97;;;2.22;;
21729;SDS011;11027;51.030;13.812;2023-04-06T14:31:24;3.22;;;1.98;;
21729;SDS011;11027;51.030;13.812;2023-04-06T14:33:50;2.75;;;1.80;;